createdAt,value
2018-11-29T00:01:34.887Z,95828.44
2018-11-29T00:04:01.309Z,95827.84
2018-11-29T00:06:27.633Z,95836.66
2018-11-29T00:08:53.964Z,95839.82
2018-11-29T00:11:20.304Z,95845.69
2018-11-29T00:13:46.838Z,95844.34
2018-11-29T00:16:13.186Z,95849.91
2018-11-29T00:18:39.503Z,95855.33
2018-11-29T00:21:05.874Z,95858.19
2018-11-29T00:23:32.247Z,95863.31
2018-11-29T00:25:58.637Z,95864.50
2018-11-29T00:28:24.991Z,95866.27
2018-11-29T00:30:51.340Z,95866.11
2018-11-29T00:33:17.784Z,95866.77
2018-11-29T00:35:44.059Z,95868.52
2018-11-29T00:38:10.391Z,95874.45
2018-11-29T00:40:36.747Z,95873.11
2018-11-29T00:43:03.081Z,95876.95
2018-11-29T00:45:29.457Z,95875.38
2018-11-29T00:47:55.783Z,95880.86
2018-11-29T00:50:22.193Z,95888.33
2018-11-29T00:52:48.518Z,95887.64
2018-11-29T00:55:14.926Z,95888.09
2018-11-29T00:57:41.284Z,95883.86
2018-11-29T01:00:07.927Z,95891.93
2018-11-29T01:02:34.269Z,95897.20
2018-11-29T01:05:00.640Z,95888.69
2018-11-29T01:07:26.979Z,95889.52
2018-11-29T01:09:53.309Z,95890.27
2018-11-29T01:12:19.790Z,95896.07
2018-11-29T01:14:46.125Z,95904.59
2018-11-29T01:17:12.483Z,95905.77
2018-11-29T01:19:38.861Z,95905.77
2018-11-29T01:22:05.251Z,95907.05
2018-11-29T01:24:31.609Z,95908.81
2018-11-29T01:26:57.935Z,95911.05
2018-11-29T01:29:24.315Z,95908.73
2018-11-29T01:31:50.708Z,95912.17
2018-11-29T01:34:17.111Z,95911.28
2018-11-29T01:36:43.500Z,95912.17
2018-11-29T01:39:09.840Z,95911.97
2018-11-29T01:41:36.168Z,95912.72
2018-11-29T01:44:02.555Z,95910.30
2018-11-29T01:46:28.935Z,95913.70
2018-11-29T01:48:55.275Z,95913.55
2018-11-29T01:51:21.690Z,95907.89
2018-11-29T01:53:48.004Z,95911.28
2018-11-29T01:56:14.353Z,95912.56
2018-11-29T01:58:40.709Z,95910.75
2018-11-29T02:01:07.064Z,95912.72
2018-11-29T02:03:33.435Z,95913.01
2018-11-29T02:05:59.767Z,95915.66
2018-11-29T02:08:26.173Z,95914.63
2018-11-29T02:10:52.570Z,95924.33
2018-11-29T02:13:18.868Z,95920.09
2018-11-29T02:15:45.216Z,95927.41
2018-11-29T02:18:11.611Z,95927.61
2018-11-29T02:20:37.947Z,95932.20
2018-11-29T02:23:04.265Z,95928.75
2018-11-29T02:25:30.605Z,95929.64
2018-11-29T02:27:56.989Z,95926.94
2018-11-29T02:30:23.447Z,95931.91
2018-11-29T02:32:49.884Z,95930.13
2018-11-29T02:35:16.150Z,95930.59
2018-11-29T02:37:42.477Z,95928.81
2018-11-29T02:40:08.818Z,95932.86
2018-11-29T02:42:35.192Z,95935.61
2018-11-29T02:45:01.512Z,95928.52
2018-11-29T02:47:27.846Z,95931.09
2018-11-29T02:49:54.279Z,95934.81
2018-11-29T02:52:20.624Z,95939.25
2018-11-29T02:54:47.007Z,95942.98
2018-11-29T02:57:13.341Z,95940.80
2018-11-29T02:59:39.706Z,95943.61
2018-11-29T03:02:06.130Z,95950.60
2018-11-29T03:04:32.516Z,95941.42
2018-11-29T03:06:58.859Z,95948.13
2018-11-29T03:09:25.201Z,95952.66
2018-11-29T03:11:51.596Z,95951.36
2018-11-29T03:14:17.930Z,95958.22
2018-11-29T03:16:44.256Z,95960.18
2018-11-29T03:19:10.611Z,95954.16
2018-11-29T03:21:37.004Z,95961.84
2018-11-29T03:24:03.555Z,95968.94
2018-11-29T03:26:29.900Z,95971.34
2018-11-29T03:28:56.223Z,95970.83
2018-11-29T03:31:22.573Z,95972.17
2018-11-29T03:33:48.901Z,95975.86
2018-11-29T03:36:15.264Z,95970.23
2018-11-29T03:38:41.640Z,95981.16
2018-11-29T03:41:07.989Z,95982.89
2018-11-29T03:43:34.513Z,95987.17
2018-11-29T03:46:00.854Z,95989.89
2018-11-29T03:48:27.187Z,95995.64
2018-11-29T03:50:53.528Z,95997.22
2018-11-29T03:53:19.901Z,95999.00
2018-11-29T03:55:46.232Z,96007.17
2018-11-29T03:58:12.567Z,96010.05
2018-11-29T04:00:38.939Z,96005.14
2018-11-29T04:03:05.409Z,96008.84
2018-11-29T04:05:31.766Z,96005.58
2018-11-29T04:07:58.152Z,96018.19
2018-11-29T04:10:24.488Z,96018.09
2018-11-29T04:12:50.857Z,96019.80
2018-11-29T04:15:17.178Z,96022.88
2018-11-29T04:17:43.512Z,96026.31
2018-11-29T04:20:09.852Z,96030.03
2018-11-29T04:22:36.233Z,96027.22
2018-11-29T04:25:02.703Z,96031.13
2018-11-29T04:27:29.865Z,96033.83
2018-11-29T04:29:56.214Z,96045.92
2018-11-29T04:32:22.543Z,96044.38
2018-11-29T04:34:48.880Z,96043.48
2018-11-29T04:37:15.222Z,96047.72
2018-11-29T04:39:41.548Z,96048.01
2018-11-29T04:42:07.944Z,96050.03
2018-11-29T04:44:34.330Z,96056.16
2018-11-29T04:47:00.728Z,96060.63
2018-11-29T04:49:27.056Z,96064.92
2018-11-29T04:51:53.381Z,96068.67
2018-11-29T04:54:19.761Z,96071.62
2018-11-29T04:56:46.108Z,96068.23
2018-11-29T04:59:12.395Z,96074.04
2018-11-29T05:01:38.732Z,96087.77
2018-11-29T05:04:05.142Z,96082.28
2018-11-29T05:06:31.544Z,96085.72
2018-11-29T05:08:57.884Z,96082.03
2018-11-29T05:11:24.223Z,96082.80
2018-11-29T05:13:50.550Z,96088.39
2018-11-29T05:16:17.004Z,96089.41
2018-11-29T05:18:43.382Z,96090.31
2018-11-29T05:21:09.781Z,96087.68
2018-11-29T05:23:36.113Z,96090.63
2018-11-29T05:26:02.470Z,96090.86
2018-11-29T05:28:28.960Z,96094.33
2018-11-29T05:30:55.334Z,96095.55
2018-11-29T05:33:21.753Z,96099.30
2018-11-29T05:35:48.091Z,96101.32
2018-11-29T05:38:14.431Z,96104.53
2018-11-29T05:40:40.831Z,96108.67
2018-11-29T05:43:07.228Z,96111.59
2018-11-29T05:45:33.618Z,96115.09
2018-11-29T05:47:59.957Z,96121.97
2018-11-29T05:50:26.300Z,96122.34
2018-11-29T05:52:52.674Z,96133.52
2018-11-29T05:55:18.998Z,96135.19
2018-11-29T05:57:45.408Z,96137.70
2018-11-29T06:00:11.763Z,96141.07
2018-11-29T06:02:38.214Z,96147.97
2018-11-29T06:05:04.625Z,96148.10
2018-11-29T06:07:31.007Z,96156.71
2018-11-29T06:09:57.335Z,96153.81
2018-11-29T06:12:23.660Z,96158.31
2018-11-29T06:14:50.058Z,96163.70
2018-11-29T06:17:16.392Z,96164.32
2018-11-29T06:19:42.754Z,96170.52
2018-11-29T06:22:09.089Z,96174.11
2018-11-29T06:24:35.478Z,96178.58
2018-11-29T06:27:01.805Z,96187.19
2018-11-29T06:29:28.142Z,96193.84
2018-11-29T06:31:54.483Z,96194.73
2018-11-29T06:34:20.806Z,96196.63
2018-11-29T06:36:47.140Z,96197.72
2018-11-29T06:39:13.529Z,96196.47
2018-11-29T06:41:39.918Z,96201.96
2018-11-29T06:44:06.243Z,96201.64
2018-11-29T06:46:32.571Z,96204.03
2018-11-29T06:48:58.921Z,96206.43
2018-11-29T06:51:25.348Z,96209.55
2018-11-29T06:53:51.831Z,96209.29
2018-11-29T06:56:18.123Z,96213.36
2018-11-29T06:58:44.503Z,96218.34
2018-11-29T07:01:14.528Z,96223.26
2018-11-29T07:03:40.867Z,96221.94
2018-11-29T07:06:07.273Z,96217.84
2018-11-29T07:08:33.554Z,96226.47
2018-11-29T07:10:59.896Z,96224.40
2018-11-29T07:13:26.244Z,96224.34
2018-11-29T07:15:52.555Z,96222.66
2018-11-29T07:18:18.911Z,96230.66
2018-11-29T07:20:45.290Z,96231.28
2018-11-29T07:23:11.617Z,96238.80
2018-11-29T07:25:37.971Z,96231.03
2018-11-29T07:28:04.309Z,96237.18
2018-11-29T07:30:30.663Z,96235.68
2018-11-29T07:32:57.035Z,96239.35
2018-11-29T07:35:23.403Z,96240.42
2018-11-29T07:37:49.805Z,96246.41
2018-11-29T07:40:16.135Z,96250.22
2018-11-29T07:42:42.541Z,96246.86
2018-11-29T07:45:08.890Z,96245.06
2018-11-29T07:47:35.229Z,96252.72
2018-11-29T07:50:01.616Z,96247.12
2018-11-29T07:52:27.963Z,96254.62
2018-11-29T07:54:54.307Z,96260.55
2018-11-29T07:57:20.637Z,96260.84
2018-11-29T07:59:46.976Z,96259.94
2018-11-29T08:02:13.306Z,96260.98
2018-11-29T08:04:39.714Z,96259.42
2018-11-29T08:07:06.083Z,96262.79
2018-11-29T08:09:32.468Z,96258.14
2018-11-29T08:11:58.834Z,96258.02
2018-11-29T08:14:25.267Z,96258.55
2018-11-29T08:16:51.638Z,96267.08
2018-11-29T08:19:17.980Z,96257.92
2018-11-29T08:21:44.355Z,96262.59
2018-11-29T08:24:10.708Z,96259.95
2018-11-29T08:26:37.158Z,96269.55
2018-11-29T08:29:03.489Z,96267.58
2018-11-29T08:31:29.869Z,96270.36
2018-11-29T08:33:56.354Z,96268.09
2018-11-29T08:36:22.794Z,96272.04
2018-11-29T08:38:49.095Z,96273.41
2018-11-29T08:41:15.480Z,96282.92
2018-11-29T08:43:41.926Z,96277.71
2018-11-29T08:46:08.439Z,96274.61
2018-11-29T08:48:34.804Z,96284.31
2018-11-29T08:51:01.100Z,96271.44
2018-11-29T08:53:27.480Z,96273.39
2018-11-29T08:55:53.886Z,96267.27
2018-11-29T08:58:20.319Z,96265.11
2018-11-29T09:00:46.874Z,96267.80
2018-11-29T09:03:13.205Z,96267.79
2018-11-29T09:05:39.603Z,96271.86
2018-11-29T09:08:06.157Z,96270.68
2018-11-29T09:10:32.506Z,96264.69
2018-11-29T09:12:59.816Z,96269.88
2018-11-29T09:15:26.278Z,96265.63
2018-11-29T09:17:52.634Z,96260.83
2018-11-29T09:20:18.975Z,96263.66
2018-11-29T09:22:45.379Z,96263.66
2018-11-29T09:25:11.783Z,96265.53
2018-11-29T09:27:38.126Z,96256.69
2018-11-29T09:30:04.479Z,96256.66
2018-11-29T09:32:30.848Z,96262.16
2018-11-29T09:34:57.218Z,96262.75
2018-11-29T09:37:23.550Z,96260.59
2018-11-29T09:39:50.363Z,96269.15
2018-11-29T09:42:16.701Z,96268.42
2018-11-29T09:44:43.162Z,96263.27
2018-11-29T09:47:09.567Z,96267.62
2018-11-29T09:49:35.918Z,96259.48
2018-11-29T09:52:02.291Z,96258.56
2018-11-29T09:54:28.699Z,96251.13
2018-11-29T09:56:55.131Z,96247.95
2018-11-29T09:59:21.468Z,96245.63
2018-11-29T10:01:47.801Z,96237.73
2018-11-29T10:04:14.143Z,96236.37
2018-11-29T10:06:40.519Z,96236.89
2018-11-29T10:09:08.012Z,96231.29
2018-11-29T10:11:34.349Z,96230.73
2018-11-29T10:14:00.677Z,96232.54
2018-11-29T10:16:27.070Z,96229.41
2018-11-29T10:18:53.398Z,96230.80
2018-11-29T10:21:19.718Z,96222.97
2018-11-29T10:23:46.076Z,96223.42
2018-11-29T10:26:12.416Z,96227.73
2018-11-29T10:28:38.840Z,96222.24
2018-11-29T10:31:05.170Z,96220.98
2018-11-29T10:33:31.527Z,96214.94
2018-11-29T10:35:59.306Z,96215.28
2018-11-29T10:38:24.286Z,96216.75
2018-11-29T10:40:50.700Z,96216.57
2018-11-29T10:43:17.127Z,96217.72
2018-11-29T10:45:43.594Z,96211.91
2018-11-29T10:48:10.069Z,96218.20
2018-11-29T10:50:36.410Z,96220.98
2018-11-29T10:53:02.880Z,96218.97
2018-11-29T10:55:29.211Z,96220.95
2018-11-29T10:57:55.724Z,96218.27
2018-11-29T11:00:22.216Z,96218.16
2018-11-29T11:02:48.488Z,96218.78
2018-11-29T11:05:14.911Z,96217.12
2018-11-29T11:07:41.259Z,96219.56
2018-11-29T11:10:07.715Z,96221.41
2018-11-29T11:12:34.128Z,96225.23
2018-11-29T11:15:00.489Z,96227.77
2018-11-29T11:17:26.890Z,96222.73
2018-11-29T11:19:53.241Z,96226.03
2018-11-29T11:22:19.739Z,96225.48
2018-11-29T11:24:46.081Z,96222.38
2018-11-29T11:27:12.451Z,96218.84
2018-11-29T11:29:38.845Z,96223.95
2018-11-29T11:32:05.205Z,96215.45
2018-11-29T11:34:31.554Z,96217.44
2018-11-29T11:36:57.885Z,96212.43
2018-11-29T11:39:25.353Z,96214.17
2018-11-29T11:41:51.698Z,96224.64
2018-11-29T11:44:18.056Z,96222.17
2018-11-29T11:46:44.391Z,96218.80
2018-11-29T11:49:10.922Z,96215.34
2018-11-29T11:51:37.255Z,96214.80
2018-11-29T11:54:04.583Z,96213.58
2018-11-29T11:56:30.933Z,96203.70
2018-11-29T11:58:57.319Z,96201.61
2018-11-29T12:01:23.706Z,96198.16
2018-11-29T12:03:50.077Z,96190.72
2018-11-29T12:06:16.466Z,96187.45
2018-11-29T12:08:42.867Z,96189.71
2018-11-29T12:11:09.217Z,96183.05
2018-11-29T12:13:35.627Z,96179.53
2018-11-29T12:16:01.993Z,96183.10
2018-11-29T12:18:28.411Z,96178.25
2018-11-29T12:20:55.997Z,96177.31
2018-11-29T12:23:21.189Z,96186.98
2018-11-29T12:25:47.621Z,96183.31
2018-11-29T12:28:13.984Z,96188.20
2018-11-29T12:30:40.302Z,96191.61
2018-11-29T12:33:06.816Z,96186.73
2018-11-29T12:35:33.154Z,96189.03
2018-11-29T12:37:59.504Z,96192.16
2018-11-29T12:40:25.884Z,96187.02
2018-11-29T12:42:52.245Z,96190.94
2018-11-29T12:45:18.622Z,96189.03
2018-11-29T12:47:45.006Z,96185.06
2018-11-29T12:50:11.406Z,96195.64
2018-11-29T12:52:37.777Z,96193.19
2018-11-29T12:55:04.103Z,96190.89
2018-11-29T12:57:30.484Z,96189.95
2018-11-29T13:00:04.076Z,96184.34
2018-11-29T13:02:30.573Z,96185.08
2018-11-29T13:04:56.993Z,96191.59
2018-11-29T13:07:23.426Z,96184.90
2018-11-29T13:09:49.835Z,96180.81
2018-11-29T13:12:16.212Z,96180.30
2018-11-29T13:14:42.550Z,96188.31
2018-11-29T13:17:08.962Z,96187.93
2018-11-29T13:19:35.331Z,96186.91
2018-11-29T13:22:01.683Z,96187.84
2018-11-29T13:24:28.010Z,96185.09
2018-11-29T13:26:54.355Z,96186.82
2018-11-29T13:29:20.766Z,96191.14
2018-11-29T13:31:47.096Z,96190.77
2018-11-29T13:34:13.572Z,96188.37
2018-11-29T13:36:39.959Z,96187.45
2018-11-29T13:39:06.339Z,96190.13
2018-11-29T13:41:32.730Z,96192.30
2018-11-29T13:43:59.154Z,96190.45
2018-11-29T13:46:25.499Z,96183.56
2018-11-29T13:48:51.864Z,96190.70
2018-11-29T13:51:18.397Z,96184.73
2018-11-29T13:53:44.740Z,96187.67
2018-11-29T13:56:11.072Z,96195.20
2018-11-29T13:58:44.742Z,96197.25
2018-11-29T14:01:11.227Z,96193.86
2018-11-29T14:03:37.595Z,96194.77
2018-11-29T14:06:04.061Z,96189.77
2018-11-29T14:08:30.669Z,96194.02
2018-11-29T14:10:57.737Z,96195.70
2018-11-29T14:13:24.430Z,96188.58
2018-11-29T14:15:50.849Z,96185.94
2018-11-29T14:18:17.176Z,96187.02
2018-11-29T14:20:43.586Z,96184.17
2018-11-29T14:23:09.929Z,96194.30
2018-11-29T14:25:37.488Z,96194.06
2018-11-29T14:28:05.061Z,96190.47
2018-11-29T14:30:30.705Z,96186.66
2018-11-29T14:32:57.051Z,96190.16
2018-11-29T14:35:23.421Z,96193.44
2018-11-29T14:37:49.788Z,96191.14
2018-11-29T14:40:16.248Z,96195.73
2018-11-29T14:42:42.619Z,96193.99
2018-11-29T14:45:08.969Z,96201.44
2018-11-29T14:47:35.339Z,96199.22
2018-11-29T14:50:01.674Z,96207.31
2018-11-29T14:52:28.070Z,96206.93
2018-11-29T14:54:54.461Z,96208.36
2018-11-29T14:57:20.795Z,96210.41
2018-11-29T14:59:47.189Z,96208.45
2018-11-29T15:02:13.518Z,96211.66
2018-11-29T15:04:39.833Z,96212.20
2018-11-29T15:07:06.241Z,96215.43
2018-11-29T15:09:32.698Z,96218.27
2018-11-29T15:11:59.048Z,96218.39
2018-11-29T15:14:25.385Z,96217.09
2018-11-29T15:16:51.822Z,96211.67
2018-11-29T15:19:18.206Z,96216.77
2018-11-29T15:21:44.684Z,96220.46
2018-11-29T15:24:11.062Z,96213.15
2018-11-29T15:26:37.777Z,96216.20
2018-11-29T15:29:04.204Z,96219.68
2018-11-29T15:31:30.526Z,96219.34
2018-11-29T15:33:56.954Z,96214.27
2018-11-29T15:36:23.286Z,96211.64
2018-11-29T15:38:49.669Z,96210.51
2018-11-29T15:41:18.183Z,96212.81
2018-11-29T15:43:42.326Z,96221.18
2018-11-29T15:46:08.716Z,96214.65
2018-11-29T15:48:35.061Z,96218.67
2018-11-29T15:51:01.427Z,96218.36
2018-11-29T15:53:27.730Z,96222.38
2018-11-29T15:55:54.057Z,96230.65
2018-11-29T15:58:20.431Z,96230.61
2018-11-29T16:00:46.915Z,96228.91
2018-11-29T16:03:13.328Z,96233.05
2018-11-29T16:05:41.152Z,96242.95
2018-11-29T16:08:05.990Z,96244.05
2018-11-29T16:10:32.313Z,96245.11
2018-11-29T16:12:58.643Z,96242.99
2018-11-29T16:15:24.976Z,96248.88
2018-11-29T16:17:51.312Z,96247.52
2018-11-29T16:20:17.637Z,96246.34
2018-11-29T16:22:43.968Z,96246.34
2018-11-29T16:25:10.333Z,96251.61
2018-11-29T16:27:36.677Z,96251.19
2018-11-29T16:30:03.010Z,96250.31
2018-11-29T16:32:29.313Z,96251.59
2018-11-29T16:34:55.651Z,96251.66
2018-11-29T16:37:21.981Z,96252.72
2018-11-29T16:39:48.331Z,96253.78
2018-11-29T16:42:14.688Z,96244.72
2018-11-29T16:44:41.022Z,96245.48
2018-11-29T16:47:07.376Z,96247.06
2018-11-29T16:49:33.705Z,96248.50
2018-11-29T16:52:00.048Z,96251.37
2018-11-29T16:54:26.397Z,96247.24
2018-11-29T16:56:52.750Z,96244.36
2018-11-29T16:59:21.342Z,96246.31
2018-11-29T17:01:47.635Z,96247.28
2018-11-29T17:04:13.955Z,96239.53
2018-11-29T17:06:40.284Z,96244.03
2018-11-29T17:09:06.622Z,96242.84
2018-11-29T17:11:32.953Z,96244.72
2018-11-29T17:13:59.283Z,96239.96
2018-11-29T17:16:25.677Z,96239.36
2018-11-29T17:18:52.110Z,96245.79
2018-11-29T17:21:18.438Z,96246.77
2018-11-29T17:23:44.777Z,96246.77
2018-11-29T17:26:11.109Z,96244.89
2018-11-29T17:28:37.450Z,96247.24
2018-11-29T17:31:03.822Z,96249.94
2018-11-29T17:33:30.236Z,96247.09
2018-11-29T17:35:56.559Z,96249.78
2018-11-29T17:38:22.903Z,96239.52
2018-11-29T17:40:51.694Z,96243.39
2018-11-29T17:43:15.660Z,96245.79
2018-11-29T17:45:42.043Z,96240.91
2018-11-29T17:48:08.448Z,96241.58
2018-11-29T17:50:34.777Z,96235.92
2018-11-29T17:53:01.175Z,96237.56
2018-11-29T17:55:27.638Z,96235.44
2018-11-29T17:57:53.966Z,96237.56
2018-11-29T18:00:20.379Z,96237.11
2018-11-29T18:02:46.709Z,96237.60
2018-11-29T18:05:13.099Z,96237.84
2018-11-29T18:07:39.440Z,96235.14
2018-11-29T18:10:05.783Z,96239.08
2018-11-29T18:12:32.152Z,96235.92
2018-11-29T18:14:58.557Z,96235.52
2018-11-29T18:17:24.867Z,96233.26
2018-11-29T18:19:51.193Z,96231.95
2018-11-29T18:22:17.534Z,96229.17
2018-11-29T18:24:43.883Z,96227.38
2018-11-29T18:27:10.413Z,96228.39
2018-11-29T18:29:36.765Z,96227.09
2018-11-29T18:32:03.155Z,96227.89
2018-11-29T18:34:29.504Z,96225.64
2018-11-29T18:36:55.903Z,96221.48
2018-11-29T18:39:22.231Z,96227.74
2018-11-29T18:41:48.639Z,96225.17
2018-11-29T18:44:14.995Z,96224.40
2018-11-29T18:46:41.389Z,96225.85
2018-11-29T18:49:07.785Z,96230.06
2018-11-29T18:51:34.124Z,96229.48
2018-11-29T18:54:00.549Z,96227.28
2018-11-29T18:56:26.851Z,96222.45
2018-11-29T18:58:53.200Z,96223.66
2018-11-29T19:01:19.617Z,96231.95
2018-11-29T19:03:45.946Z,96227.89
2018-11-29T19:06:12.290Z,96222.83
2018-11-29T19:08:38.661Z,96222.22
2018-11-29T19:11:05.093Z,96213.92
2018-11-29T19:13:31.502Z,96221.47
2018-11-29T19:15:57.936Z,96219.73
2018-11-29T19:18:24.337Z,96220.55
2018-11-29T19:20:50.723Z,96223.10
2018-11-29T19:23:17.051Z,96227.55
2018-11-29T19:25:43.440Z,96217.61
2018-11-29T19:28:09.903Z,96217.38
2018-11-29T19:30:36.211Z,96220.94
2018-11-29T19:33:02.546Z,96215.65
2018-11-29T19:35:28.867Z,96218.50
2018-11-29T19:37:55.256Z,96218.80
2018-11-29T19:40:21.591Z,96225.16
2018-11-29T19:42:47.950Z,96220.78
2018-11-29T19:45:14.310Z,96224.34
2018-11-29T19:47:40.667Z,96226.60
2018-11-29T19:50:07.079Z,96231.64
2018-11-29T19:52:33.407Z,96229.38
2018-11-29T19:54:59.804Z,96232.40
2018-11-29T19:57:26.183Z,96237.24
2018-11-29T19:59:52.478Z,96236.78
2018-11-29T20:02:18.819Z,96232.70
2018-11-29T20:04:45.158Z,96234.51
2018-11-29T20:07:11.584Z,96231.27
2018-11-29T20:09:37.914Z,96224.70
2018-11-29T20:12:04.251Z,96230.08
2018-11-29T20:14:30.599Z,96228.55
2018-11-29T20:16:56.937Z,96232.31
2018-11-29T20:19:23.330Z,96232.94
2018-11-29T20:21:49.662Z,96233.84
2018-11-29T20:24:15.997Z,96226.59
2018-11-29T20:26:42.356Z,96237.84
2018-11-29T20:29:08.747Z,96233.06
2018-11-29T20:31:35.121Z,96231.57
2018-11-29T20:34:01.534Z,96232.77
2018-11-29T20:36:27.872Z,96225.52
2018-11-29T20:38:54.282Z,96226.05
2018-11-29T20:41:20.628Z,96225.31
2018-11-29T20:43:47.020Z,96218.56
2018-11-29T20:46:13.356Z,96220.47
2018-11-29T20:48:39.699Z,96216.38
2018-11-29T20:51:06.029Z,96217.52
2018-11-29T20:53:32.412Z,96219.78
2018-11-29T20:55:58.751Z,96210.66
2018-11-29T20:58:25.090Z,96214.66
2018-11-29T21:00:51.431Z,96218.80
2018-11-29T21:03:17.826Z,96214.80
2018-11-29T21:05:44.184Z,96214.80
2018-11-29T21:08:10.536Z,96215.84
2018-11-29T21:10:36.858Z,96209.64
2018-11-29T21:13:03.201Z,96209.19
2018-11-29T21:15:29.576Z,96207.91
2018-11-29T21:17:55.899Z,96205.39
2018-11-29T21:20:22.330Z,96204.71
2018-11-29T21:22:48.634Z,96196.47
2018-11-29T21:25:15.031Z,96194.16
2018-11-29T21:27:41.484Z,96195.45
2018-11-29T21:30:07.835Z,96197.17
2018-11-29T21:32:34.165Z,96190.55
2018-11-29T21:35:00.528Z,96193.42
2018-11-29T21:37:26.933Z,96184.59
2018-11-29T21:39:53.313Z,96190.22
2018-11-29T21:42:19.594Z,96185.68
2018-11-29T21:44:45.925Z,96187.79
2018-11-29T21:47:12.250Z,96186.34
2018-11-29T21:49:38.655Z,96179.61
2018-11-29T21:52:04.984Z,96172.05
2018-11-29T21:54:31.325Z,96174.42
2018-11-29T21:56:57.674Z,96174.03
2018-11-29T21:59:24.086Z,96168.89
2018-11-29T22:01:50.441Z,96169.42
2018-11-29T22:04:16.847Z,96165.72
2018-11-29T22:06:43.220Z,96167.07
2018-11-29T22:09:09.582Z,96165.77
2018-11-29T22:11:35.910Z,96156.27
2018-11-29T22:14:02.297Z,96158.62
2018-11-29T22:16:28.685Z,96161.88
2018-11-29T22:18:54.984Z,96154.44
2018-11-29T22:21:23.573Z,96152.85
2018-11-29T22:23:49.963Z,96156.41
2018-11-29T22:26:16.317Z,96144.72
2018-11-29T22:28:42.647Z,96143.63
2018-11-29T22:31:09.022Z,96143.63
2018-11-29T22:33:35.350Z,96132.83
2018-11-29T22:36:01.684Z,96132.03
2018-11-29T22:38:28.070Z,96129.13
2018-11-29T22:40:54.452Z,96126.66
2018-11-29T22:43:20.744Z,96119.66
2018-11-29T22:45:47.072Z,96116.66
2018-11-29T22:48:13.401Z,96117.30
2018-11-29T22:50:39.796Z,96117.16
2018-11-29T22:53:06.169Z,96113.68
2018-11-29T22:55:32.544Z,96119.55
2018-11-29T22:57:58.870Z,96120.09
2018-11-29T23:00:25.256Z,96118.66
2018-11-29T23:02:51.585Z,96123.73
2018-11-29T23:05:17.939Z,96117.02
2018-11-29T23:07:44.263Z,96113.18
2018-11-29T23:10:10.636Z,96111.17
2018-11-29T23:12:36.967Z,96105.05
2018-11-29T23:15:03.400Z,96103.69
2018-11-29T23:17:29.737Z,96103.33
2018-11-29T23:19:56.070Z,96099.54
2018-11-29T23:22:22.461Z,96095.45
2018-11-29T23:24:48.791Z,96103.63
2018-11-29T23:27:15.130Z,96093.69
2018-11-29T23:29:41.516Z,96099.73
2018-11-29T23:32:07.860Z,96089.68
2018-11-29T23:34:34.203Z,96095.11
2018-11-29T23:37:00.525Z,96094.36
2018-11-29T23:39:26.857Z,96092.33
2018-11-29T23:41:53.251Z,96092.22
2018-11-29T23:44:19.607Z,96092.36
2018-11-29T23:46:45.949Z,96089.02
2018-11-29T23:49:12.306Z,96079.77
2018-11-29T23:51:38.654Z,96078.97
2018-11-29T23:54:05.017Z,96079.91
2018-11-29T23:56:31.384Z,96078.41
2018-11-29T23:58:57.763Z,96080.97
